Time;durP1;ratioP1;P1;durP2;ratioP2;P2;SDS_P1;SDS_P2;PMS_P1;PMS_P2;Temp;Humidity;BMP_temperature;BMP_pressure;BME280_temperature;BME280_humidity;BME280_pressure;Samples;Min_cycle;Max_cycle;Signal;HPM_P1;HPM_P2
2021/12/13 00:00:22;;;;;;;2.95;0.80;;;12.10;99.90;;;;;;4899853;29;20052;-86
2021/12/13 00:02:56;;;;;;;3.33;0.80;;;12.20;99.90;;;;;;4900034;29;20134;-86
2021/12/13 00:05:30;;;;;;;1.58;0.80;;;12.20;99.90;;;;;;4899550;29;20473;-86
2021/12/13 00:08:01;;;;;;;5.45;1.13;;;12.50;99.90;;;;;;4899696;29;20469;-86
2021/12/13 00:10:35;;;;;;;2.47;0.90;;;12.30;99.90;;;;;;4899524;29;20053;-86
2021/12/13 00:13:06;;;;;;;2.45;0.70;;;12.40;99.90;;;;;;4899942;29;20139;-86
2021/12/13 00:15:38;;;;;;;4.40;0.75;;;12.40;99.90;;;;;;4899709;29;20044;-85
2021/12/13 00:18:08;;;;;;;1.60;0.70;;;12.40;99.90;;;;;;4899432;29;20052;-86
2021/12/13 00:20:41;;;;;;;2.75;0.68;;;12.30;99.90;;;;;;4899521;29;20052;-86
2021/12/13 00:23:16;;;;;;;2.42;1.15;;;12.10;99.90;;;;;;4899584;29;20117;-86
2021/12/13 00:25:46;;;;;;;2.10;0.73;;;12.20;99.90;;;;;;4899312;29;20084;-86
2021/12/13 00:28:17;;;;;;;2.17;0.80;;;12.10;99.90;;;;;;4899346;29;20049;-86
2021/12/13 00:30:55;;;;;;;3.63;0.90;;;12.20;99.90;;;;;;4899244;29;20506;-86
2021/12/13 00:33:33;;;;;;;1.13;0.60;;;12.20;99.90;;;;;;4899433;29;20104;-86
2021/12/13 00:36:08;;;;;;;1.92;0.70;;;12.10;99.90;;;;;;4899301;29;20475;-86
2021/12/13 00:38:42;;;;;;;2.25;0.82;;;12.20;99.90;;;;;;4898989;29;20112;-86
2021/12/13 00:41:14;;;;;;;1.40;0.82;;;12.10;99.90;;;;;;4899050;29;20083;-86
2021/12/13 00:43:49;;;;;;;3.50;0.70;;;12.00;99.90;;;;;;4899009;29;20459;-86
2021/12/13 00:46:17;;;;;;;1.70;0.80;;;12.00;99.90;;;;;;4899401;29;20044;-86
2021/12/13 00:48:47;;;;;;;0.80;0.50;;;12.10;99.90;;;;;;4898917;29;20049;-86
2021/12/13 00:51:20;;;;;;;3.30;0.80;;;12.10;99.90;;;;;;4898892;29;20060;-86
2021/12/13 00:53:50;;;;;;;0.95;0.70;;;12.10;99.90;;;;;;4898732;29;20495;-86
2021/12/13 00:56:50;;;;;;;1.50;0.80;;;12.10;99.90;;;;;;4899118;29;20045;-86
2021/12/13 00:59:23;;;;;;;1.02;0.70;;;12.10;99.90;;;;;;4898637;29;20057;-85
2021/12/13 01:01:54;;;;;;;1.42;0.77;;;12.20;99.90;;;;;;4901295;29;20079;-85
2021/12/13 01:04:22;;;;;;;4.32;1.15;;;12.10;99.90;;;;;;4901213;29;20084;-85
2021/12/13 01:07:37;;;;;;;2.75;0.70;;;12.10;99.90;;;;;;4901494;29;20057;-85
2021/12/13 01:10:44;;;;;;;1.75;0.80;;;12.10;99.90;;;;;;4840724;29;20079;-86
2021/12/13 01:13:18;;;;;;;1.35;0.60;;;12.00;99.90;;;;;;4897958;29;20411;-86
2021/12/13 01:15:51;;;;;;;1.00;0.70;;;12.00;99.90;;;;;;4898814;29;20104;-85
2021/12/13 01:18:28;;;;;;;2.88;0.80;;;12.00;99.90;;;;;;4898168;29;20055;-85
2021/12/13 01:21:03;;;;;;;1.25;0.80;;;12.00;99.90;;;;;;4898575;29;20052;-86
2021/12/13 01:23:44;;;;;;;2.65;0.57;;;12.00;99.90;;;;;;4897321;29;20049;-85
2021/12/13 01:26:28;;;;;;;1.17;0.63;;;12.00;99.90;;;;;;4879206;29;20056;-86
2021/12/13 01:28:59;;;;;;;1.13;0.50;;;12.00;99.90;;;;;;4896679;29;20559;-85
2021/12/13 01:31:30;;;;;;;0.98;0.60;;;12.00;99.90;;;;;;4898217;29;20178;-85
2021/12/13 01:33:59;;;;;;;0.98;0.60;;;12.00;99.90;;;;;;4898200;29;20502;-85
2021/12/13 01:36:37;;;;;;;1.58;0.65;;;12.10;99.90;;;;;;4898448;29;20113;-85
2021/12/13 01:39:08;;;;;;;0.90;0.50;;;12.00;99.90;;;;;;4898210;29;20147;-86
2021/12/13 01:41:41;;;;;;;1.33;0.70;;;12.00;99.90;;;;;;4898375;29;20049;-86
2021/12/13 01:44:12;;;;;;;1.48;0.60;;;12.00;99.90;;;;;;4898049;29;20097;-86
2021/12/13 01:46:44;;;;;;;1.67;0.68;;;12.00;99.90;;;;;;4897938;29;20567;-86
2021/12/13 01:49:12;;;;;;;0.88;0.50;;;12.00;99.90;;;;;;4898112;29;20116;-85
2021/12/13 01:51:40;;;;;;;1.02;0.50;;;11.90;99.90;;;;;;4906872;29;20056;-86
2021/12/13 01:54:12;;;;;;;1.48;0.52;;;12.00;99.90;;;;;;4916722;29;20053;-86
2021/12/13 01:56:46;;;;;;;1.10;0.60;;;12.00;99.90;;;;;;4916750;29;20052;-86
2021/12/13 02:02:17;;;;;;;3.85;0.63;;;11.90;99.90;;;;;;4887812;29;20053;-86
2021/12/13 02:04:46;;;;;;;0.77;0.57;;;12.00;99.90;;;;;;4897740;29;20492;-85
2021/12/13 02:07:13;;;;;;;0.85;0.43;;;12.00;99.90;;;;;;4897926;29;20112;-86
2021/12/13 02:09:43;;;;;;;1.00;0.40;;;12.00;99.90;;;;;;4896462;29;20518;-85
2021/12/13 02:12:15;;;;;;;0.85;0.50;;;12.00;99.90;;;;;;4894135;29;20113;-85
2021/12/13 02:14:49;;;;;;;2.15;0.65;;;12.00;99.90;;;;;;4897529;29;20101;-86
2021/12/13 02:17:19;;;;;;;0.95;0.57;;;11.90;99.90;;;;;;4897711;29;20658;-86
2021/12/13 02:19:51;;;;;;;0.85;0.55;;;12.00;99.90;;;;;;4897613;29;20160;-86
2021/12/13 02:22:41;;;;;;;1.75;0.70;;;12.00;99.90;;;;;;4897620;29;20081;-86
2021/12/13 02:25:22;;;;;;;1.83;0.52;;;11.90;99.90;;;;;;4897894;29;20053;-86
2021/12/13 02:27:52;;;;;;;0.70;0.70;;;11.90;99.90;;;;;;4894823;29;20085;-86
2021/12/13 02:30:34;;;;;;;0.90;0.40;;;12.00;99.90;;;;;;4900833;29;20052;-86
2021/12/13 02:33:04;;;;;;;1.15;0.50;;;12.00;99.90;;;;;;4901083;29;20105;-86
2021/12/13 02:35:34;;;;;;;2.67;0.68;;;11.90;99.90;;;;;;4900964;29;20483;-86
2021/12/13 02:38:05;;;;;;;2.20;0.60;;;11.90;99.90;;;;;;4901022;29;20049;-86
2021/12/13 02:40:33;;;;;;;2.70;1.00;;;11.80;99.90;;;;;;4900540;29;20105;-86
2021/12/13 02:43:00;;;;;;;2.80;1.00;;;11.80;99.90;;;;;;4900604;29;20555;-86
2021/12/13 02:45:32;;;;;;;1.83;0.88;;;11.80;99.90;;;;;;4900803;29;20100;-86
2021/12/13 02:48:06;;;;;;;1.10;0.75;;;11.80;99.90;;;;;;4900772;29;20136;-87
2021/12/13 02:50:41;;;;;;;1.98;0.82;;;11.80;99.90;;;;;;4899849;29;20048;-86
2021/12/13 02:53:19;;;;;;;2.17;0.60;;;11.80;99.90;;;;;;4881730;29;20048;-86
2021/12/13 02:55:46;;;;;;;3.03;0.40;;;11.70;99.90;;;;;;4883532;29;20049;-86
2021/12/13 02:58:18;;;;;;;1.65;0.40;;;11.80;99.90;;;;;;4883319;29;20508;-86
2021/12/13 03:00:52;;;;;;;3.65;0.45;;;11.70;99.90;;;;;;4884022;29;20049;-86
2021/12/13 03:03:23;;;;;;;3.42;0.68;;;11.80;99.90;;;;;;4881757;29;20105;-86
2021/12/13 03:05:54;;;;;;;2.47;0.55;;;11.70;99.90;;;;;;4881521;29;20109;-86
2021/12/13 03:08:30;;;;;;;3.80;1.05;;;11.70;99.90;;;;;;4881498;29;20080;-86
2021/12/13 03:11:01;;;;;;;5.65;0.95;;;11.70;99.90;;;;;;4881344;29;20053;-86
2021/12/13 03:13:30;;;;;;;5.20;1.17;;;11.70;99.90;;;;;;4881364;29;20049;-87
2021/12/13 03:16:01;;;;;;;4.78;0.95;;;11.70;99.90;;;;;;4881406;29;20049;-86
2021/12/13 03:18:40;;;;;;;5.15;1.52;;;11.70;99.90;;;;;;4881037;29;20053;-87
2021/12/13 03:21:33;;;;;;;6.05;1.30;;;11.60;99.90;;;;;;4879713;29;20052;-87
2021/12/13 03:24:20;;;;;;;7.93;1.70;;;11.60;99.90;;;;;;4881975;29;20056;-86
2021/12/13 03:27:25;;;;;;;15.98;2.28;;;11.60;99.90;;;;;;4882066;29;20080;-86
2021/12/13 03:29:59;;;;;;;11.15;1.88;;;11.50;99.90;;;;;;4838647;29;20112;-87
2021/12/13 03:32:35;;;;;;;26.48;3.40;;;11.50;99.90;;;;;;4881844;29;20080;-87
2021/12/13 03:35:09;;;;;;;13.32;2.60;;;11.50;99.90;;;;;;4883516;29;20468;-87
2021/12/13 03:37:37;;;;;;;17.80;3.17;;;11.40;99.90;;;;;;4881159;29;20048;-86
2021/12/13 03:40:10;;;;;;;16.30;2.25;;;11.30;99.90;;;;;;4881299;29;20057;-87
2021/12/13 03:42:40;;;;;;;20.13;3.88;;;11.30;99.90;;;;;;4881504;29;20399;-87
2021/12/13 03:45:14;;;;;;;24.33;4.40;;;11.20;99.90;;;;;;4881011;29;20105;-87
2021/12/13 03:47:50;;;;;;;24.40;4.13;;;11.10;99.90;;;;;;4880843;29;20061;-87
2021/12/13 03:50:21;;;;;;;25.25;3.67;;;11.10;99.90;;;;;;4881078;29;20059;-87
2021/12/13 03:52:51;;;;;;;28.58;4.63;;;11.00;99.90;;;;;;4893663;29;20143;-86
2021/12/13 03:55:23;;;;;;;26.00;5.38;;;10.90;99.90;;;;;;4900277;29;20499;-86
2021/12/13 03:57:52;;;;;;;27.27;5.68;;;10.90;99.90;;;;;;4900045;29;20116;-87
2021/12/13 04:00:24;;;;;;;26.17;5.10;;;10.90;99.90;;;;;;4900222;29;20068;-87
2021/12/13 04:02:53;;;;;;;31.65;5.30;;;10.90;99.90;;;;;;4899988;29;20117;-87
2021/12/13 04:05:23;;;;;;;33.80;4.18;;;10.90;99.90;;;;;;4899723;29;20104;-86
2021/12/13 04:07:55;;;;;;;32.30;6.00;;;10.80;99.90;;;;;;4900039;29;20082;-87
2021/12/13 04:10:26;;;;;;;28.27;5.53;;;10.80;99.90;;;;;;4899814;29;20127;-87
2021/12/13 04:12:57;;;;;;;26.42;5.47;;;10.80;99.90;;;;;;4899723;29;20052;-86
2021/12/13 04:15:36;;;;;;;26.55;6.05;;;10.70;99.90;;;;;;4899928;29;20056;-87
2021/12/13 04:18:16;;;;;;;32.40;5.20;;;10.70;99.90;;;;;;4899762;29;20045;-87
2021/12/13 04:20:45;;;;;;;29.05;6.75;;;10.70;99.90;;;;;;4899484;29;20053;-86
2021/12/13 04:23:16;;;;;;;26.00;4.60;;;10.60;99.90;;;;;;4899555;29;20499;-87
2021/12/13 04:25:47;;;;;;;31.23;5.78;;;10.60;99.90;;;;;;4899707;29;20083;-86
2021/12/13 04:28:17;;;;;;;27.00;4.65;;;10.60;99.90;;;;;;4899489;29;20108;-87
2021/12/13 04:30:48;;;;;;;25.40;4.55;;;10.60;99.90;;;;;;4899795;29;20100;-87
2021/12/13 04:33:22;;;;;;;33.15;6.00;;;10.60;99.90;;;;;;4899618;29;20052;-87
2021/12/13 04:35:52;;;;;;;30.50;5.50;;;10.60;99.90;;;;;;4899193;29;20045;-87
2021/12/13 04:38:25;;;;;;;36.90;5.18;;;10.60;99.90;;;;;;4899601;29;20109;-86
2021/12/13 04:40:55;;;;;;;32.03;5.90;;;10.60;99.90;;;;;;4899546;29;20203;-87
2021/12/13 04:43:23;;;;;;;27.05;4.60;;;10.60;99.90;;;;;;4899289;29;20048;-87
2021/12/13 04:45:56;;;;;;;39.88;5.97;;;10.60;99.90;;;;;;4899305;29;20104;-86
2021/12/13 04:48:26;;;;;;;30.35;5.97;;;10.70;99.90;;;;;;4899565;29;20100;-87
2021/12/13 04:50:56;;;;;;;34.25;5.82;;;10.70;99.90;;;;;;4902765;29;20052;-87
2021/12/13 04:53:26;;;;;;;29.33;5.57;;;10.70;99.90;;;;;;4902402;29;20052;-87
2021/12/13 04:55:57;;;;;;;26.52;5.07;;;10.60;99.90;;;;;;4902471;29;20055;-87
2021/12/13 04:58:24;;;;;;;34.97;6.00;;;10.60;99.90;;;;;;4899054;29;20121;-86
2021/12/13 05:00:56;;;;;;;26.60;4.65;;;10.70;99.90;;;;;;4898723;29;20499;-86
2021/12/13 05:03:27;;;;;;;35.03;6.40;;;10.70;99.90;;;;;;4898779;29;20093;-86
2021/12/13 05:05:54;;;;;;;32.38;5.13;;;10.70;99.90;;;;;;4899085;29;20101;-86
2021/12/13 05:08:22;;;;;;;24.65;5.80;;;10.70;99.90;;;;;;4898741;29;20100;-87
2021/12/13 05:10:51;;;;;;;29.85;5.82;;;10.70;99.90;;;;;;4898992;29;20085;-86
2021/12/13 05:13:23;;;;;;;30.17;7.53;;;10.60;99.90;;;;;;4899119;29;20051;-87
2021/12/13 05:15:57;;;;;;;28.65;6.03;;;10.60;99.90;;;;;;4899071;29;20057;-86
2021/12/13 05:18:27;;;;;;;29.05;4.72;;;10.60;99.90;;;;;;4898449;29;20048;-86
2021/12/13 05:21:01;;;;;;;31.77;5.40;;;10.60;99.90;;;;;;4898573;29;20472;-86
2021/12/13 05:23:30;;;;;;;30.27;5.63;;;10.60;99.90;;;;;;4898619;29;20512;-87
2021/12/13 05:26:01;;;;;;;41.00;5.28;;;10.50;99.90;;;;;;4898256;29;20055;-86
2021/12/13 05:28:37;;;;;;;30.10;5.45;;;10.50;99.90;;;;;;4881479;29;20068;-87
2021/12/13 05:31:09;;;;;;;32.22;5.93;;;10.40;99.90;;;;;;4914332;29;20412;-86
2021/12/13 05:33:40;;;;;;;16.45;3.97;;;10.30;99.90;;;;;;4917518;29;20059;-86
2021/12/13 05:36:10;;;;;;;26.15;4.78;;;10.30;99.90;;;;;;4917709;29;20073;-87
2021/12/13 05:38:42;;;;;;;24.45;3.88;;;10.30;99.90;;;;;;4916525;29;20053;-86
2021/12/13 05:41:12;;;;;;;23.00;4.47;;;10.20;99.90;;;;;;4917683;29;20056;-86
2021/12/13 05:43:43;;;;;;;24.88;3.17;;;10.20;99.90;;;;;;4917526;29;20053;-86
2021/12/13 05:46:13;;;;;;;27.20;3.60;;;10.20;99.90;;;;;;4917242;29;20052;-86
2021/12/13 05:48:45;;;;;;;29.40;4.35;;;10.20;99.90;;;;;;4917233;29;20048;-86
2021/12/13 05:51:31;;;;;;;13.38;3.25;;;10.20;99.90;;;;;;4911634;29;20060;-86
2021/12/13 05:54:02;;;;;;;20.48;4.25;;;10.20;99.90;;;;;;4897962;29;20057;-86
2021/12/13 05:56:36;;;;;;;24.00;4.40;;;10.10;99.90;;;;;;4897898;29;20054;-87
2021/12/13 05:59:21;;;;;;;26.42;4.38;;;10.10;99.90;;;;;;4897959;29;20105;-86
2021/12/13 06:02:01;;;;;;;21.52;3.40;;;10.10;99.90;;;;;;4894165;29;20108;-87
2021/12/13 06:04:36;;;;;;;21.90;3.58;;;10.20;99.90;;;;;;4901534;29;20056;-86
2021/12/13 06:07:14;;;;;;;18.63;3.72;;;10.10;99.90;;;;;;4902172;29;20104;-87
2021/12/13 06:09:53;;;;;;;19.02;4.70;;;10.10;99.90;;;;;;4902078;29;20060;-86
2021/12/13 06:12:34;;;;;;;23.80;4.00;;;10.10;99.90;;;;;;4902269;29;20060;-87
2021/12/13 06:15:24;;;;;;;17.33;4.47;;;10.10;99.90;;;;;;4901808;29;20108;-87
2021/12/13 06:17:56;;;;;;;20.10;3.30;;;10.10;99.90;;;;;;4902133;29;20083;-87
2021/12/13 06:20:26;;;;;;;18.85;4.07;;;10.10;99.90;;;;;;4902004;29;20056;-87
2021/12/13 06:23:04;;;;;;;19.30;3.53;;;10.10;99.90;;;;;;4901629;29;20045;-87
2021/12/13 06:25:32;;;;;;;25.88;3.22;;;10.00;99.90;;;;;;4901819;29;20495;-87
2021/12/13 06:28:00;;;;;;;28.75;3.83;;;10.00;99.90;;;;;;4901510;29;20084;-87
2021/12/13 06:30:33;;;;;;;19.92;3.38;;;9.90;99.90;;;;;;4901466;29;20053;-87
2021/12/13 06:33:02;;;;;;;17.35;3.70;;;9.90;99.90;;;;;;4901602;29;20080;-86
2021/12/13 06:35:41;;;;;;;26.98;5.00;;;9.90;99.90;;;;;;4901260;29;20104;-87
2021/12/13 06:38:43;;;;;;;17.75;3.08;;;9.90;99.90;;;;;;4901812;29;20500;-87
2021/12/13 06:41:20;;;;;;;18.42;3.72;;;9.90;99.90;;;;;;4901446;29;20100;-87
2021/12/13 06:43:50;;;;;;;18.38;3.65;;;9.90;99.90;;;;;;4902401;29;20056;-86
2021/12/13 06:46:36;;;;;;;19.23;4.05;;;9.90;99.90;;;;;;4904221;29;20167;-87
2021/12/13 06:49:10;;;;;;;20.23;4.97;;;9.90;99.90;;;;;;4903661;29;20052;-86
2021/12/13 06:51:42;;;;;;;17.48;2.75;;;9.90;99.90;;;;;;4912186;29;20056;-87
2021/12/13 06:54:13;;;;;;;17.52;3.20;;;10.10;99.90;;;;;;4920102;29;20052;-86
2021/12/13 06:56:42;;;;;;;23.42;3.90;;;10.10;99.90;;;;;;4920345;29;20151;-87
2021/12/13 06:59:15;;;;;;;16.23;2.80;;;10.00;99.90;;;;;;4919790;29;20115;-87
2021/12/13 07:01:55;;;;;;;11.05;2.30;;;10.00;99.90;;;;;;4919960;29;20107;-87
2021/12/13 07:04:22;;;;;;;19.02;3.50;;;10.00;99.90;;;;;;4920079;29;20087;-87
2021/12/13 07:06:50;;;;;;;16.90;3.22;;;10.10;99.90;;;;;;4919666;29;20547;-87
2021/12/13 07:09:19;;;;;;;11.80;2.30;;;10.20;99.90;;;;;;4919897;29;20048;-86
2021/12/13 07:11:48;;;;;;;;;;;10.20;99.90;;;;;;4919513;29;20052;-87
2021/12/13 07:14:16;;;;;;;;;;;10.10;99.90;;;;;;4920078;29;20022;-87
2021/12/13 07:16:49;;;;;;;16.23;2.38;;;10.20;99.90;;;;;;4919775;29;19923;-87
2021/12/13 07:19:20;;;;;;;18.77;2.45;;;10.20;99.90;;;;;;4905458;29;20563;-87
2021/12/13 07:21:56;;;;;;;10.20;2.13;;;10.20;99.90;;;;;;4900789;29;20096;-87
2021/12/13 07:24:40;;;;;;;15.68;2.80;;;10.20;99.90;;;;;;4900593;29;20048;-87
2021/12/13 07:27:11;;;;;;;13.38;2.28;;;10.20;99.90;;;;;;4900735;29;20052;-86
2021/12/13 07:29:43;;;;;;;16.60;2.92;;;10.30;99.90;;;;;;4900758;29;20052;-87
2021/12/13 07:32:16;;;;;;;20.20;2.97;;;10.20;99.90;;;;;;4900328;29;20053;-86
2021/12/13 07:35:00;;;;;;;13.70;2.60;;;10.20;99.90;;;;;;4902311;29;20114;-87
2021/12/13 07:37:44;;;;;;;28.08;3.78;;;10.20;99.90;;;;;;4900457;29;20052;-87
2021/12/13 07:40:22;;;;;;;22.63;3.65;;;10.30;99.90;;;;;;4901322;29;20116;-87
2021/12/13 07:42:57;;;;;;;22.02;3.95;;;10.40;99.90;;;;;;4900511;29;20045;-87
2021/12/13 07:45:30;;;;;;;14.93;2.85;;;10.40;99.90;;;;;;4901056;29;20083;-87
2021/12/13 07:48:05;;;;;;;20.60;3.65;;;10.40;99.90;;;;;;4899952;29;20052;-86
2021/12/13 07:50:33;;;;;;;17.52;3.35;;;10.40;99.90;;;;;;4900383;29;20555;-86
2021/12/13 07:53:03;;;;;;;22.47;3.90;;;10.30;99.90;;;;;;4881306;29;20089;-86
2021/12/13 07:55:31;;;;;;;26.45;3.00;;;10.20;99.90;;;;;;4881206;29;20373;-86
2021/12/13 07:58:04;;;;;;;13.98;2.65;;;10.10;99.90;;;;;;4882906;29;20456;-86
2021/12/13 08:00:36;;;;;;;16.30;3.33;;;10.00;99.90;;;;;;4880974;29;20114;-87
2021/12/13 08:03:10;;;;;;;13.02;2.47;;;10.00;99.90;;;;;;4881861;29;20044;-86
2021/12/13 08:05:42;;;;;;;14.60;2.42;;;9.90;99.90;;;;;;4885494;29;20060;-87
2021/12/13 08:08:19;;;;;;;16.85;3.13;;;9.90;99.90;;;;;;4881502;29;20056;-88
2021/12/13 08:10:49;;;;;;;14.50;2.63;;;9.90;99.90;;;;;;4880824;29;20085;-87
2021/12/13 08:13:19;;;;;;;17.10;3.17;;;10.10;99.90;;;;;;4881994;29;20455;-86
2021/12/13 08:15:50;;;;;;;13.57;3.17;;;10.40;99.90;;;;;;4881013;29;20045;-86
2021/12/13 08:18:30;;;;;;;16.35;3.33;;;10.50;99.90;;;;;;4881526;29;20048;-87
2021/12/13 08:21:00;;;;;;;11.95;2.90;;;10.30;99.90;;;;;;4883011;29;20059;-86
2021/12/13 08:23:33;;;;;;;10.90;2.80;;;10.30;99.90;;;;;;4886722;29;20049;-87
2021/12/13 08:26:02;;;;;;;11.60;2.35;;;10.40;99.90;;;;;;4881096;29;20060;-87
2021/12/13 08:28:33;;;;;;;;;;;10.30;99.90;;;;;;4881258;29;20045;-87
2021/12/13 08:31:02;;;;;;;19.13;3.20;;;10.40;99.90;;;;;;4880997;29;19923;-87
2021/12/13 08:33:38;;;;;;;17.58;3.53;;;10.30;99.90;;;;;;4881247;29;20049;-87
2021/12/13 08:36:09;;;;;;;13.48;2.88;;;10.20;99.90;;;;;;4881786;29;20049;-87
2021/12/13 08:38:46;;;;;;;17.60;2.75;;;10.20;99.90;;;;;;4880529;29;20053;-87
2021/12/13 08:41:32;;;;;;;19.35;3.88;;;10.10;99.90;;;;;;4883078;29;20048;-87
2021/12/13 08:44:03;;;;;;;19.17;4.28;;;10.10;99.90;;;;;;4881457;29;20045;-87
2021/12/13 08:46:40;;;;;;;13.55;2.70;;;10.10;99.90;;;;;;4883000;29;20113;-87
2021/12/13 08:49:20;;;;;;;17.00;2.50;;;10.10;99.90;;;;;;4881111;29;20061;-88
2021/12/13 08:51:59;;;;;;;17.95;3.72;;;10.00;99.90;;;;;;4852277;29;20176;-86
2021/12/13 08:54:51;;;;;;;16.17;3.03;;;9.60;99.90;;;;;;4826729;29;20060;-85
2021/12/13 08:57:43;;;;;;;11.38;2.33;;;10.00;99.90;;;;;;4866996;29;20077;-84
2021/12/13 09:00:37;;;;;;;14.40;3.47;;;10.10;99.90;;;;;;4873532;29;20053;-86
2021/12/13 09:03:20;;;;;;;11.60;3.17;;;10.20;99.90;;;;;;4848547;29;20193;-87
2021/12/13 09:05:58;;;;;;;17.95;3.28;;;10.30;99.90;;;;;;4871147;29;20049;-87
2021/12/13 09:08:30;;;;;;;14.18;2.97;;;10.30;99.90;;;;;;4810212;29;20054;-88
2021/12/13 09:11:02;;;;;;;14.98;3.25;;;10.30;99.90;;;;;;4810669;29;20056;-85
2021/12/13 09:13:40;;;;;;;11.07;2.28;;;10.30;99.90;;;;;;4815836;29;20037;-86
2021/12/13 09:16:09;;;;;;;22.20;3.22;;;10.40;99.90;;;;;;4809295;29;20055;-88
2021/12/13 09:18:36;;;;;;;;;;;10.50;99.90;;;;;;4816146;29;20049;-86
2021/12/13 09:21:08;;;;;;;28.10;3.85;;;10.50;99.90;;;;;;4820150;29;19928;-85
2021/12/13 09:23:41;;;;;;;21.00;4.55;;;10.50;99.90;;;;;;4816115;29;20096;-87
2021/12/13 09:26:12;;;;;;;20.20;3.63;;;10.50;99.90;;;;;;4813284;29;20125;-87
2021/12/13 09:28:46;;;;;;;27.67;3.33;;;10.60;99.90;;;;;;4808811;29;20065;-85
2021/12/13 09:31:17;;;;;;;15.73;2.97;;;10.30;99.90;;;;;;4854530;29;20049;-86
2021/12/13 09:33:49;;;;;;;17.08;3.50;;;10.20;99.90;;;;;;4874372;29;20041;-87
2021/12/13 09:36:21;;;;;;;25.92;2.80;;;10.20;99.90;;;;;;4850076;29;20041;-86
2021/12/13 09:38:54;;;;;;;18.42;3.05;;;10.20;99.90;;;;;;4783123;29;20137;-86
2021/12/13 09:41:30;;;;;;;22.38;3.53;;;10.40;99.90;;;;;;4782685;29;20065;-86
2021/12/13 09:44:03;;;;;;;22.52;3.25;;;10.50;99.90;;;;;;4787273;29;20056;-85
2021/12/13 09:46:38;;;;;;;20.17;3.15;;;10.60;99.90;;;;;;4790884;29;20401;-86
2021/12/13 09:49:10;;;;;;;24.50;3.08;;;10.60;99.90;;;;;;4793644;29;20461;-86
2021/12/13 09:51:43;;;;;;;24.60;4.57;;;10.60;99.90;;;;;;4797829;29;20619;-86
2021/12/13 09:54:13;;;;;;;28.70;4.80;;;10.70;99.90;;;;;;4810989;29;20076;-87
2021/12/13 09:56:49;;;;;;;22.60;2.80;;;10.60;99.90;;;;;;4816402;29;20316;-87
2021/12/13 09:59:25;;;;;;;21.98;4.43;;;10.60;99.90;;;;;;4813205;29;20048;-86
2021/12/13 10:01:55;;;;;;;18.10;2.50;;;10.60;99.90;;;;;;4808647;29;20403;-86
2021/12/13 10:04:30;;;;;;;15.02;1.88;;;10.50;99.90;;;;;;4807835;29;20047;-86
2021/12/13 10:07:02;;;;;;;13.93;2.75;;;10.40;99.90;;;;;;4810230;29;20689;-87
2021/12/13 10:09:34;;;;;;;9.45;2.42;;;10.40;99.90;;;;;;4806949;29;20111;-87
2021/12/13 10:12:06;;;;;;;10.48;2.65;;;10.30;99.90;;;;;;4814524;29;20048;-87
2021/12/13 10:14:37;;;;;;;11.32;2.50;;;11.20;99.90;;;;;;4814667;29;20074;-85
2021/12/13 10:17:07;;;;;;;11.45;2.15;;;10.30;99.90;;;;;;4802641;29;20049;-87
2021/12/13 10:19:37;;;;;;;20.05;2.20;;;10.40;99.90;;;;;;4846230;29;20049;-86
2021/12/13 10:22:07;;;;;;;14.25;2.33;;;10.50;99.90;;;;;;4898738;29;20097;-87
2021/12/13 10:24:38;;;;;;;13.48;2.08;;;10.30;99.90;;;;;;4895792;29;20473;-87
2021/12/13 10:27:08;;;;;;;11.23;2.17;;;10.40;99.90;;;;;;4896900;29;20143;-86
2021/12/13 10:29:36;;;;;;;12.52;1.85;;;10.40;99.90;;;;;;4897828;29;20049;-87
2021/12/13 10:32:08;;;;;;;15.80;2.20;;;10.50;99.90;;;;;;4898539;29;20091;-87
2021/12/13 10:34:37;;;;;;;14.23;2.92;;;10.50;99.90;;;;;;4894343;29;20056;-88
2021/12/13 10:37:10;;;;;;;11.23;2.55;;;10.50;99.90;;;;;;4899309;29;20053;-88
2021/12/13 10:39:41;;;;;;;18.45;2.53;;;10.40;99.90;;;;;;4897947;29;20060;-87
2021/12/13 10:42:13;;;;;;;14.68;2.58;;;10.40;99.90;;;;;;4898255;29;20048;-87
2021/12/13 10:44:44;;;;;;;12.88;2.50;;;10.40;99.90;;;;;;4897542;29;20053;-88
2021/12/13 10:47:16;;;;;;;11.77;2.00;;;10.40;99.90;;;;;;4892546;29;20051;-86
2021/12/13 10:49:45;;;;;;;12.77;2.58;;;10.50;99.90;;;;;;4896269;29;20484;-86
2021/12/13 10:52:17;;;;;;;21.27;3.05;;;10.40;99.90;;;;;;4898216;29;20508;-88
2021/12/13 10:54:47;;;;;;;23.08;2.72;;;10.30;99.90;;;;;;4897671;29;20064;-88
2021/12/13 10:57:17;;;;;;;17.15;2.80;;;10.30;99.90;;;;;;4895122;29;20041;-86
2021/12/13 10:59:47;;;;;;;23.77;4.45;;;10.50;99.90;;;;;;4893240;29;20055;-87
2021/12/13 11:02:19;;;;;;;11.70;2.28;;;10.50;99.90;;;;;;4899809;29;20112;-87
2021/12/13 11:04:50;;;;;;;18.92;2.63;;;10.40;99.90;;;;;;4898548;29;20101;-88
2021/12/13 11:07:20;;;;;;;21.00;2.95;;;10.40;99.90;;;;;;4896081;29;20040;-88
2021/12/13 11:09:49;;;;;;;27.05;2.80;;;10.40;99.90;;;;;;4899428;29;20108;-88
2021/12/13 11:12:20;;;;;;;21.45;2.72;;;10.40;99.90;;;;;;4898547;29;20453;-86
2021/12/13 11:14:51;;;;;;;24.02;2.75;;;10.40;99.90;;;;;;4898253;29;20488;-88
2021/12/13 11:17:22;;;;;;;15.88;4.85;;;10.40;99.90;;;;;;4899855;29;20053;-86
2021/12/13 11:19:52;;;;;;;13.45;4.10;;;10.40;99.90;;;;;;4896551;29;20100;-87
2021/12/13 11:22:24;;;;;;;22.55;4.00;;;10.40;99.90;;;;;;4893506;29;20052;-87
2021/12/13 11:24:54;;;;;;;12.15;2.75;;;10.50;99.90;;;;;;4898263;29;20124;-87
2021/12/13 11:27:24;;;;;;;13.18;1.88;;;10.60;99.90;;;;;;4898244;29;20172;-88
2021/12/13 11:29:52;;;;;;;9.93;1.65;;;10.60;99.90;;;;;;4896635;29;20060;-87
2021/12/13 11:32:52;;;;;;;6.95;1.35;;;10.60;99.90;;;;;;4898859;29;20048;-86
2021/12/13 11:35:52;;;;;;;14.25;2.03;;;9.50;99.90;;;;;;4892958;29;20427;-87
2021/12/13 11:38:43;;;;;;;14.00;2.28;;;9.80;99.90;;;;;;4892157;29;20163;-87
2021/12/13 11:41:44;;;;;;;10.55;2.55;;;10.20;99.90;;;;;;4898841;29;20053;-85
2021/12/13 11:44:31;;;;;;;9.80;1.70;;;10.20;99.90;;;;;;4884986;29;20388;-88
2021/12/13 11:47:24;;;;;;;19.15;3.15;;;10.20;99.90;;;;;;4890969;29;20056;-83
2021/12/13 11:50:09;;;;;;;10.32;1.92;;;10.20;99.90;;;;;;4842073;29;20305;-87
2021/12/13 11:52:59;;;;;;;14.43;2.10;;;10.20;99.90;;;;;;4803120;29;20136;-86
2021/12/13 11:55:55;;;;;;;11.27;2.28;;;10.20;99.90;;;;;;4803236;29;20795;-85
2021/12/13 11:58:55;;;;;;;11.13;2.33;;;10.20;99.90;;;;;;4774450;29;20186;-87
2021/12/13 12:01:53;;;;;;;9.10;2.30;;;10.20;99.90;;;;;;4799926;29;20047;-87
2021/12/13 12:05:09;;;;;;;10.23;2.50;;;10.20;99.90;;;;;;4801327;29;20052;-88
2021/12/13 12:08:19;;;;;;;14.02;3.00;;;10.20;99.90;;;;;;4802558;29;20052;-88
2021/12/13 12:11:17;;;;;;;13.90;2.90;;;10.20;99.90;;;;;;4797413;29;20179;-88
2021/12/13 12:14:01;;;;;;;15.27;3.13;;;10.30;99.90;;;;;;4804844;29;20078;-88
2021/12/13 12:16:29;;;;;;;12.23;3.35;;;10.30;99.90;;;;;;4806705;29;20077;-88
2021/12/13 12:18:57;;;;;;;16.58;7.53;;;10.30;99.90;;;;;;4810761;29;20067;-88
2021/12/13 12:21:47;;;;;;;22.25;4.53;;;10.30;99.90;;;;;;4803970;29;20048;-88
2021/12/13 12:24:17;;;;;;;18.33;4.15;;;11.60;99.90;;;;;;4798682;29;20084;-87
2021/12/13 12:26:51;;;;;;;18.55;3.83;;;10.20;99.90;;;;;;4811015;29;20584;-88
2021/12/13 12:29:21;;;;;;;15.10;3.83;;;10.20;99.90;;;;;;4804542;29;20044;-87
2021/12/13 12:31:52;;;;;;;11.07;3.70;;;10.20;99.90;;;;;;4801305;29;21323;-86
2021/12/13 12:34:19;;;;;;;18.65;5.05;;;10.10;99.90;;;;;;4803975;29;21550;-88
2021/12/13 12:37:17;;;;;;;18.85;3.88;;;10.10;99.90;;;;;;4808025;29;20040;-86
2021/12/13 12:40:18;;;;;;;19.25;4.68;;;10.10;99.90;;;;;;4849336;29;20466;-87
2021/12/13 12:42:52;;;;;;;15.02;3.70;;;10.20;99.90;;;;;;4836509;29;20055;-87
2021/12/13 12:45:24;;;;;;;15.13;3.78;;;10.10;99.90;;;;;;4890810;29;20049;-86
2021/12/13 12:48:06;;;;;;;16.02;5.03;;;10.20;99.90;;;;;;4887344;29;20388;-87
2021/12/13 12:50:37;;;;;;;18.38;4.78;;;10.20;99.90;;;;;;4865109;29;20089;-86
2021/12/13 12:53:11;;;;;;;19.80;4.97;;;10.10;99.90;;;;;;4875472;29;20056;-85
2021/12/13 12:55:42;;;;;;;18.95;4.43;;;10.20;99.90;;;;;;4872456;29;20046;-86
2021/12/13 12:58:48;;;;;;;21.92;6.32;;;10.10;99.90;;;;;;4876189;29;20045;-86
2021/12/13 13:01:21;;;;;;;12.95;3.03;;;9.10;99.90;;;;;;4857720;29;20056;-86
2021/12/13 13:03:48;;;;;;;21.20;3.83;;;10.20;99.90;;;;;;4876561;29;20071;-84
2021/12/13 13:06:21;;;;;;;14.75;3.05;;;10.30;99.90;;;;;;4867899;29;20049;-85
2021/12/13 13:08:52;;;;;;;15.18;3.88;;;10.30;99.90;;;;;;4876325;29;20056;-85
2021/12/13 13:11:29;;;;;;;10.70;3.67;;;10.20;99.90;;;;;;4878880;29;20053;-84
2021/12/13 13:14:12;;;;;;;17.52;4.10;;;10.30;99.90;;;;;;4879739;29;20045;-85
2021/12/13 13:16:45;;;;;;;14.68;3.42;;;10.30;99.90;;;;;;4873441;29;20045;-85
2021/12/13 13:19:26;;;;;;;13.48;3.97;;;10.30;99.90;;;;;;4883376;29;20100;-85
2021/12/13 13:21:54;;;;;;;18.20;4.15;;;10.40;99.90;;;;;;4877743;29;20049;-85